sensor_id;sensor_type;location;lat;lon;timestamp;pressure;altitude;pressure_sealevel;temperature;humidity
28344;BME280;15597;50.914;6.638;2023-05-23T00:00:23;100963.22;;;22.03;50.32
28344;BME280;15597;50.914;6.638;2023-05-23T00:02:49;100961.31;;;22.06;50.36
28344;BME280;15597;50.914;6.638;2023-05-23T00:05:14;100968.34;;;22.07;50.14
28344;BME280;15597;50.914;6.638;2023-05-23T00:07:43;100962.06;;;22.08;50.07
28344;BME280;15597;50.914;6.638;2023-05-23T00:10:09;100961.09;;;22.09;49.93
28344;BME280;15597;50.914;6.638;2023-05-23T00:12:35;100955.78;;;22.09;49.88
28344;BME280;15597;50.914;6.638;2023-05-23T00:15:04;100951.50;;;22.06;49.91
28344;BME280;15597;50.914;6.638;2023-05-23T00:17:32;100949.03;;;22.03;49.89
28344;BME280;15597;50.914;6.638;2023-05-23T00:19:57;100956.38;;;21.99;50.03
28344;BME280;15597;50.914;6.638;2023-05-23T00:22:23;100951.34;;;21.95;49.96
28344;BME280;15597;50.914;6.638;2023-05-23T00:24:48;100953.34;;;21.91;49.86
28344;BME280;15597;50.914;6.638;2023-05-23T00:27:14;100954.41;;;21.88;49.96
28344;BME280;15597;50.914;6.638;2023-05-23T00:29:40;100955.25;;;21.89;50.05
28344;BME280;15597;50.914;6.638;2023-05-23T00:32:05;100956.97;;;21.90;50.01
28344;BME280;15597;50.914;6.638;2023-05-23T00:34:31;100955.06;;;21.92;50.12
28344;BME280;15597;50.914;6.638;2023-05-23T00:36:57;100961.81;;;21.98;50.01
28344;BME280;15597;50.914;6.638;2023-05-23T00:39:22;100961.50;;;22.02;49.84
28344;BME280;15597;50.914;6.638;2023-05-23T00:41:49;100957.69;;;22.07;50.08
28344;BME280;15597;50.914;6.638;2023-05-23T00:44:15;100964.53;;;22.11;49.90
28344;BME280;15597;50.914;6.638;2023-05-23T00:46:42;100963.50;;;22.13;49.70
28344;BME280;15597;50.914;6.638;2023-05-23T00:49:10;100960.50;;;22.18;49.46
28344;BME280;15597;50.914;6.638;2023-05-23T00:51:38;100963.09;;;22.20;49.50
28344;BME280;15597;50.914;6.638;2023-05-23T00:54:06;100970.97;;;22.21;49.70
28344;BME280;15597;50.914;6.638;2023-05-23T00:56:32;100963.94;;;22.20;49.53
28344;BME280;15597;50.914;6.638;2023-05-23T00:58:58;100969.25;;;22.20;49.35
28344;BME280;15597;50.914;6.638;2023-05-23T01:01:25;100964.13;;;22.17;49.66
28344;BME280;15597;50.914;6.638;2023-05-23T01:03:52;100966.91;;;22.15;49.45
28344;BME280;15597;50.914;6.638;2023-05-23T01:06:17;100972.72;;;22.08;49.61
28344;BME280;15597;50.914;6.638;2023-05-23T01:08:43;100967.59;;;22.04;49.82
28344;BME280;15597;50.914;6.638;2023-05-23T01:11:31;100969.31;;;21.91;49.84
28344;BME280;15597;50.914;6.638;2023-05-23T01:14:11;100979.53;;;21.84;50.36
28344;BME280;15597;50.914;6.638;2023-05-23T01:16:52;100972.69;;;21.80;50.37
28344;BME280;15597;50.914;6.638;2023-05-23T01:19:48;100981.59;;;21.65;50.82
28344;BME280;15597;50.914;6.638;2023-05-23T01:22:47;100980.16;;;21.59;50.87
28344;BME280;15597;50.914;6.638;2023-05-23T01:28:11;100979.84;;;21.49;51.10
28344;BME280;15597;50.914;6.638;2023-05-23T01:30:39;100980.53;;;21.53;51.37
28344;BME280;15597;50.914;6.638;2023-05-23T01:33:06;100977.88;;;21.53;51.19
28344;BME280;15597;50.914;6.638;2023-05-23T01:35:32;100974.16;;;21.55;51.41
28344;BME280;15597;50.914;6.638;2023-05-23T01:37:58;100978.44;;;21.58;51.22
28344;BME280;15597;50.914;6.638;2023-05-23T01:40:24;100978.44;;;21.58;51.29
28344;BME280;15597;50.914;6.638;2023-05-23T01:42:51;100986.31;;;21.59;50.97
28344;BME280;15597;50.914;6.638;2023-05-23T01:45:17;100994.69;;;21.39;51.42
28344;BME280;15597;50.914;6.638;2023-05-23T01:47:47;101002.59;;;21.40;51.52
28344;BME280;15597;50.914;6.638;2023-05-23T01:50:14;100992.91;;;21.39;51.69
28344;BME280;15597;50.914;6.638;2023-05-23T01:52:41;101001.06;;;21.36;51.37
28344;BME280;15597;50.914;6.638;2023-05-23T01:55:07;101007.59;;;21.30;51.61
28344;BME280;15597;50.914;6.638;2023-05-23T01:57:35;101012.63;;;21.21;51.72
28344;BME280;15597;50.914;6.638;2023-05-23T02:00:04;101013.16;;;21.11;51.83
28344;BME280;15597;50.914;6.638;2023-05-23T02:02:39;101006.41;;;21.06;51.62
28344;BME280;15597;50.914;6.638;2023-05-23T02:05:05;101012.88;;;21.01;51.65
28344;BME280;15597;50.914;6.638;2023-05-23T02:07:30;101014.66;;;21.01;51.89
28344;BME280;15597;50.914;6.638;2023-05-23T02:09:56;101012.16;;;20.98;51.90
28344;BME280;15597;50.914;6.638;2023-05-23T02:12:22;101014.75;;;20.99;52.09
28344;BME280;15597;50.914;6.638;2023-05-23T02:14:48;101026.41;;;20.97;51.83
28344;BME280;15597;50.914;6.638;2023-05-23T02:17:14;101025.56;;;20.96;52.04
28344;BME280;15597;50.914;6.638;2023-05-23T02:19:41;101023.56;;;21.00;51.75
28344;BME280;15597;50.914;6.638;2023-05-23T02:22:07;101029.84;;;20.99;51.64
28344;BME280;15597;50.914;6.638;2023-05-23T02:24:33;101025.56;;;20.96;51.47
28344;BME280;15597;50.914;6.638;2023-05-23T02:26:58;101033.81;;;20.92;51.89
28344;BME280;15597;50.914;6.638;2023-05-23T02:29:24;101030.38;;;20.90;51.67
28344;BME280;15597;50.914;6.638;2023-05-23T02:31:49;101024.31;;;20.87;51.47
28344;BME280;15597;50.914;6.638;2023-05-23T02:34:15;101033.03;;;20.90;51.62
28344;BME280;15597;50.914;6.638;2023-05-23T02:36:40;101033.03;;;20.90;51.52
28344;BME280;15597;50.914;6.638;2023-05-23T02:39:06;101040.00;;;20.92;51.70
28344;BME280;15597;50.914;6.638;2023-05-23T02:41:32;101035.34;;;20.96;52.02
28344;BME280;15597;50.914;6.638;2023-05-23T02:43:57;101032.44;;;21.00;51.81
28344;BME280;15597;50.914;6.638;2023-05-23T02:46:23;101033.28;;;21.01;51.79
28344;BME280;15597;50.914;6.638;2023-05-23T02:48:49;101024.53;;;20.99;51.34
28344;BME280;15597;50.914;6.638;2023-05-23T02:51:14;101036.03;;;20.99;51.68
28344;BME280;15597;50.914;6.638;2023-05-23T02:53:40;101035.94;;;21.01;51.54
28344;BME280;15597;50.914;6.638;2023-05-23T02:56:06;101026.25;;;21.00;51.39
28344;BME280;15597;50.914;6.638;2023-05-23T02:58:33;101031.66;;;20.98;51.34
28344;BME280;15597;50.914;6.638;2023-05-23T03:01:03;101023.88;;;20.95;51.51
28344;BME280;15597;50.914;6.638;2023-05-23T03:03:28;101031.75;;;20.97;51.42
28344;BME280;15597;50.914;6.638;2023-05-23T03:05:59;101026.59;;;20.94;51.50
28344;BME280;15597;50.914;6.638;2023-05-23T03:08:25;101032.69;;;20.96;51.11
28344;BME280;15597;50.914;6.638;2023-05-23T03:10:51;101032.78;;;20.94;51.28
28344;BME280;15597;50.914;6.638;2023-05-23T03:13:17;101030.22;;;20.93;51.22
28344;BME280;15597;50.914;6.638;2023-05-23T03:15:43;101039.25;;;20.90;51.56
28344;BME280;15597;50.914;6.638;2023-05-23T03:18:09;101041.19;;;20.86;51.32
28344;BME280;15597;50.914;6.638;2023-05-23T03:20:35;101036.06;;;20.83;51.34
28344;BME280;15597;50.914;6.638;2023-05-23T03:23:00;101045.94;;;20.81;51.47
28344;BME280;15597;50.914;6.638;2023-05-23T03:25:26;101051.25;;;20.81;51.64
28344;BME280;15597;50.914;6.638;2023-05-23T03:27:53;101049.53;;;20.80;51.60
28344;BME280;15597;50.914;6.638;2023-05-23T03:30:19;101052.34;;;20.77;51.40
28344;BME280;15597;50.914;6.638;2023-05-23T03:32:45;101057.84;;;20.74;51.87
28344;BME280;15597;50.914;6.638;2023-05-23T03:35:11;101057.84;;;20.74;51.66
28344;BME280;15597;50.914;6.638;2023-05-23T03:37:37;101056.13;;;20.73;51.59
28344;BME280;15597;50.914;6.638;2023-05-23T03:40:03;101059.53;;;20.75;52.12
28344;BME280;15597;50.914;6.638;2023-05-23T03:42:29;101060.41;;;20.76;51.93
28344;BME280;15597;50.914;6.638;2023-05-23T03:44:55;101055.94;;;20.76;52.04
28344;BME280;15597;50.914;6.638;2023-05-23T03:47:22;101055.94;;;20.76;51.74
28344;BME280;15597;50.914;6.638;2023-05-23T03:49:49;101063.16;;;20.74;51.79
28344;BME280;15597;50.914;6.638;2023-05-23T03:52:15;101063.31;;;20.71;52.07
28344;BME280;15597;50.914;6.638;2023-05-23T03:54:40;101067.19;;;20.65;52.07
28344;BME280;15597;50.914;6.638;2023-05-23T03:57:07;101065.97;;;20.55;52.47
28344;BME280;15597;50.914;6.638;2023-05-23T03:59:34;101075.84;;;20.53;52.58
28344;BME280;15597;50.914;6.638;2023-05-23T04:02:01;101075.00;;;20.52;52.62
28344;BME280;15597;50.914;6.638;2023-05-23T04:04:28;101066.25;;;20.50;52.66
28344;BME280;15597;50.914;6.638;2023-05-23T04:06:53;101068.75;;;20.53;52.76
28344;BME280;15597;50.914;6.638;2023-05-23T04:09:19;101070.34;;;20.56;52.70
28344;BME280;15597;50.914;6.638;2023-05-23T04:11:47;101066.75;;;20.57;52.60
28344;BME280;15597;50.914;6.638;2023-05-23T04:14:13;101071.56;;;20.50;52.63
28344;BME280;15597;50.914;6.638;2023-05-23T04:16:39;101077.47;;;20.39;53.00
28344;BME280;15597;50.914;6.638;2023-05-23T04:19:06;101082.13;;;20.36;52.67
28344;BME280;15597;50.914;6.638;2023-05-23T04:21:33;101072.50;;;20.33;52.83
28344;BME280;15597;50.914;6.638;2023-05-23T04:24:10;101079.78;;;20.29;52.86
28344;BME280;15597;50.914;6.638;2023-05-23T04:26:35;101083.41;;;20.28;53.10
28344;BME280;15597;50.914;6.638;2023-05-23T04:29:03;101087.16;;;20.24;52.90
28344;BME280;15597;50.914;6.638;2023-05-23T04:31:30;101080.19;;;20.22;53.06
28344;BME280;15597;50.914;6.638;2023-05-23T04:33:56;101084.34;;;20.27;53.14
28344;BME280;15597;50.914;6.638;2023-05-23T04:36:22;101082.19;;;20.34;53.39
28344;BME280;15597;50.914;6.638;2023-05-23T04:38:51;101091.63;;;20.40;53.20
28344;BME280;15597;50.914;6.638;2023-05-23T04:41:17;101094.78;;;20.47;52.99
28344;BME280;15597;50.914;6.638;2023-05-23T04:44:01;101078.00;;;20.46;52.95
28344;BME280;15597;50.914;6.638;2023-05-23T04:46:32;101078.66;;;20.50;52.70
28344;BME280;15597;50.914;6.638;2023-05-23T04:49:20;101078.78;;;20.48;52.48
28344;BME280;15597;50.914;6.638;2023-05-23T04:51:47;101085.97;;;20.46;52.65
28344;BME280;15597;50.914;6.638;2023-05-23T04:54:19;101095.22;;;20.39;52.63
28344;BME280;15597;50.914;6.638;2023-05-23T04:56:46;101092.63;;;20.37;52.71
28344;BME280;15597;50.914;6.638;2023-05-23T04:59:13;101091.81;;;20.37;52.67
28344;BME280;15597;50.914;6.638;2023-05-23T05:01:39;101085.63;;;20.36;52.74
28344;BME280;15597;50.914;6.638;2023-05-23T05:04:05;101091.09;;;20.33;52.42
28344;BME280;15597;50.914;6.638;2023-05-23T05:06:30;101095.75;;;20.29;53.16
28344;BME280;15597;50.914;6.638;2023-05-23T05:08:56;101103.09;;;20.24;52.50
28344;BME280;15597;50.914;6.638;2023-05-23T05:11:22;101097.78;;;20.24;52.76
28344;BME280;15597;50.914;6.638;2023-05-23T05:13:48;101101.56;;;20.20;52.95
28344;BME280;15597;50.914;6.638;2023-05-23T05:16:13;101106.25;;;20.15;52.81
28344;BME280;15597;50.914;6.638;2023-05-23T05:18:39;101108.19;;;20.11;52.84
28344;BME280;15597;50.914;6.638;2023-05-23T05:21:06;101109.03;;;20.12;52.98
28344;BME280;15597;50.914;6.638;2023-05-23T05:23:32;101115.13;;;20.14;53.10
28344;BME280;15597;50.914;6.638;2023-05-23T05:25:58;101117.66;;;20.17;52.77
28344;BME280;15597;50.914;6.638;2023-05-23T05:28:25;101116.63;;;20.20;53.23
28344;BME280;15597;50.914;6.638;2023-05-23T05:30:51;101114.75;;;20.22;53.07
28344;BME280;15597;50.914;6.638;2023-05-23T05:33:20;101112.19;;;20.20;53.16
28344;BME280;15597;50.914;6.638;2023-05-23T05:35:50;101117.50;;;20.20;52.97
28344;BME280;15597;50.914;6.638;2023-05-23T05:38:16;101118.28;;;20.22;53.09
28344;BME280;15597;50.914;6.638;2023-05-23T05:40:42;101127.78;;;20.26;52.88
28344;BME280;15597;50.914;6.638;2023-05-23T05:43:08;101122.47;;;20.26;53.04
28344;BME280;15597;50.914;6.638;2023-05-23T05:45:35;101126.84;;;20.27;52.97
28344;BME280;15597;50.914;6.638;2023-05-23T05:48:01;101130.28;;;20.29;53.05
28344;BME280;15597;50.914;6.638;2023-05-23T05:50:27;101130.19;;;20.31;52.72
28344;BME280;15597;50.914;6.638;2023-05-23T05:52:53;101131.22;;;20.28;52.82
28344;BME280;15597;50.914;6.638;2023-05-23T05:55:19;101131.38;;;20.25;52.96
28344;BME280;15597;50.914;6.638;2023-05-23T05:57:49;101135.75;;;20.26;52.73
28344;BME280;15597;50.914;6.638;2023-05-23T06:00:15;101143.56;;;20.29;52.91
28344;BME280;15597;50.914;6.638;2023-05-23T06:02:50;101138.25;;;20.29;52.69
28344;BME280;15597;50.914;6.638;2023-05-23T06:05:24;101138.25;;;20.29;52.93
28344;BME280;15597;50.914;6.638;2023-05-23T06:07:51;101139.25;;;20.27;52.76
28344;BME280;15597;50.914;6.638;2023-05-23T06:10:17;101136.53;;;20.28;52.62
28344;BME280;15597;50.914;6.638;2023-05-23T06:12:43;101148.19;;;20.26;52.83
28344;BME280;15597;50.914;6.638;2023-05-23T06:15:10;101142.97;;;20.24;52.89
28344;BME280;15597;50.914;6.638;2023-05-23T06:17:37;101145.63;;;20.24;52.89
28344;BME280;15597;50.914;6.638;2023-05-23T06:20:03;101152.66;;;20.25;52.56
28344;BME280;15597;50.914;6.638;2023-05-23T06:22:30;101142.00;;;20.25;52.98
28344;BME280;15597;50.914;6.638;2023-05-23T06:24:56;101148.19;;;20.26;52.71
28344;BME280;15597;50.914;6.638;2023-05-23T06:27:22;101148.88;;;20.29;52.93
28344;BME280;15597;50.914;6.638;2023-05-23T06:29:48;101159.41;;;20.31;52.83
28344;BME280;15597;50.914;6.638;2023-05-23T06:32:14;101163.09;;;20.28;52.80
28344;BME280;15597;50.914;6.638;2023-05-23T06:34:39;101161.56;;;20.24;52.80
28344;BME280;15597;50.914;6.638;2023-05-23T06:37:05;101158.03;;;20.24;53.01
28344;BME280;15597;50.914;6.638;2023-05-23T06:39:31;101161.72;;;20.21;53.12
28344;BME280;15597;50.914;6.638;2023-05-23T06:41:56;101161.19;;;20.14;52.86
28344;BME280;15597;50.914;6.638;2023-05-23T06:44:22;101163.91;;;20.13;53.00
28344;BME280;15597;50.914;6.638;2023-05-23T06:46:52;101170.78;;;20.17;52.93
28344;BME280;15597;50.914;6.638;2023-05-23T06:49:23;101176.09;;;20.17;53.14
28344;BME280;15597;50.914;6.638;2023-05-23T06:51:50;101175.34;;;20.15;53.23
28344;BME280;15597;50.914;6.638;2023-05-23T06:54:16;101177.19;;;20.13;53.30
28344;BME280;15597;50.914;6.638;2023-05-23T06:56:43;101178.13;;;20.12;53.29
28344;BME280;15597;50.914;6.638;2023-05-23T06:59:08;101188.06;;;20.08;53.21
28344;BME280;15597;50.914;6.638;2023-05-23T07:01:34;101182.81;;;20.07;53.19
28344;BME280;15597;50.914;6.638;2023-05-23T07:04:00;101188.91;;;20.09;53.29
28344;BME280;15597;50.914;6.638;2023-05-23T07:06:25;101188.91;;;20.09;53.13
28344;BME280;15597;50.914;6.638;2023-05-23T07:08:54;101190.78;;;20.07;53.29
28344;BME280;15597;50.914;6.638;2023-05-23T07:11:21;101191.88;;;20.03;53.34
28344;BME280;15597;50.914;6.638;2023-05-23T07:13:52;101193.53;;;20.05;53.22
28344;BME280;15597;50.914;6.638;2023-05-23T07:16:32;101202.50;;;20.03;53.19
28344;BME280;15597;50.914;6.638;2023-05-23T07:19:01;101194.69;;;19.99;53.22
28344;BME280;15597;50.914;6.638;2023-05-23T07:21:28;101208.59;;;20.05;53.48
28344;BME280;15597;50.914;6.638;2023-05-23T07:23:54;101201.66;;;20.02;53.37
28344;BME280;15597;50.914;6.638;2023-05-23T07:26:20;101208.75;;;20.02;53.51
28344;BME280;15597;50.914;6.638;2023-05-23T07:28:50;101207.03;;;20.00;53.33
28344;BME280;15597;50.914;6.638;2023-05-23T07:31:16;101203.44;;;20.02;53.54
28344;BME280;15597;50.914;6.638;2023-05-23T07:33:42;101213.06;;;20.04;53.60
28344;BME280;15597;50.914;6.638;2023-05-23T07:36:10;101209.78;;;19.99;53.72
28344;BME280;15597;50.914;6.638;2023-05-23T07:38:36;101207.03;;;20.00;53.68
28344;BME280;15597;50.914;6.638;2023-05-23T07:41:01;101214.06;;;20.02;53.88
28344;BME280;15597;50.914;6.638;2023-05-23T07:43:27;101208.75;;;20.02;53.56
28344;BME280;15597;50.914;6.638;2023-05-23T07:45:52;101209.47;;;20.05;53.70
28344;BME280;15597;50.914;6.638;2023-05-23T07:48:18;101207.34;;;20.12;53.70
28344;BME280;15597;50.914;6.638;2023-05-23T07:50:43;101218.91;;;20.11;53.62
28344;BME280;15597;50.914;6.638;2023-05-23T07:53:09;101219.22;;;20.05;53.81
28344;BME280;15597;50.914;6.638;2023-05-23T07:55:35;101222.81;;;20.04;53.90
28344;BME280;15597;50.914;6.638;2023-05-23T07:58:01;101217.66;;;20.00;53.77
28344;BME280;15597;50.914;6.638;2023-05-23T08:00:27;101217.81;;;19.97;53.83
28344;BME280;15597;50.914;6.638;2023-05-23T08:02:59;101216.25;;;19.93;54.14
28344;BME280;15597;50.914;6.638;2023-05-23T08:05:30;101219.06;;;19.90;54.00
28344;BME280;15597;50.914;6.638;2023-05-23T08:07:56;101221.56;;;19.93;54.08
28344;BME280;15597;50.914;6.638;2023-05-23T08:10:23;101222.44;;;19.94;53.75
28344;BME280;15597;50.914;6.638;2023-05-23T08:12:52;101224.84;;;19.98;53.75
28344;BME280;15597;50.914;6.638;2023-05-23T08:15:18;101230.00;;;20.02;54.24
28344;BME280;15597;50.914;6.638;2023-05-23T08:17:50;101230.31;;;19.95;54.10
28344;BME280;15597;50.914;6.638;2023-05-23T08:20:21;101231.34;;;19.93;54.41
28344;BME280;15597;50.914;6.638;2023-05-23T08:22:46;101237.94;;;19.84;54.55
28344;BME280;15597;50.914;6.638;2023-05-23T08:25:13;101245.28;;;19.79;54.74
28344;BME280;15597;50.914;6.638;2023-05-23T08:27:39;101249.19;;;19.71;54.48
28344;BME280;15597;50.914;6.638;2023-05-23T08:30:20;101237.28;;;19.61;54.89
28344;BME280;15597;50.914;6.638;2023-05-23T08:32:47;101248.06;;;19.58;54.96
28344;BME280;15597;50.914;6.638;2023-05-23T08:35:13;101259.97;;;19.49;55.06
28344;BME280;15597;50.914;6.638;2023-05-23T08:37:39;101257.72;;;19.41;55.11
28344;BME280;15597;50.914;6.638;2023-05-23T08:40:06;101251.63;;;19.39;55.36
28344;BME280;15597;50.914;6.638;2023-05-23T08:42:42;101264.00;;;19.39;55.69
28344;BME280;15597;50.914;6.638;2023-05-23T08:45:09;101252.69;;;19.35;55.64
28344;BME280;15597;50.914;6.638;2023-05-23T08:47:41;101253.84;;;19.30;55.88
28344;BME280;15597;50.914;6.638;2023-05-23T08:50:09;101261.59;;;19.34;55.77
28344;BME280;15597;50.914;6.638;2023-05-23T08:53:02;101270.53;;;19.32;55.80
28344;BME280;15597;50.914;6.638;2023-05-23T08:55:29;101265.72;;;19.40;55.67
28344;BME280;15597;50.914;6.638;2023-05-23T08:57:57;101266.31;;;19.47;55.77
28344;BME280;15597;50.914;6.638;2023-05-23T09:00:43;101275.06;;;19.49;55.48
28344;BME280;15597;50.914;6.638;2023-05-23T09:03:09;101276.63;;;19.53;55.65
28344;BME280;15597;50.914;6.638;2023-05-23T09:05:49;101290.69;;;19.55;55.36
28344;BME280;15597;50.914;6.638;2023-05-23T09:08:15;101291.69;;;19.52;55.35
28344;BME280;15597;50.914;6.638;2023-05-23T09:10:41;101291.81;;;19.49;55.07
28344;BME280;15597;50.914;6.638;2023-05-23T09:13:08;101291.97;;;19.46;55.31
28344;BME280;15597;50.914;6.638;2023-05-23T09:15:35;101295.66;;;19.44;55.43
28344;BME280;15597;50.914;6.638;2023-05-23T09:18:01;101293.16;;;19.40;55.50
28344;BME280;15597;50.914;6.638;2023-05-23T09:20:28;101302.81;;;19.41;55.61
28344;BME280;15597;50.914;6.638;2023-05-23T09:22:57;101295.72;;;19.42;55.56
28344;BME280;15597;50.914;6.638;2023-05-23T09:25:23;101298.59;;;19.37;55.37
28344;BME280;15597;50.914;6.638;2023-05-23T09:27:51;101307.50;;;19.36;55.53
28344;BME280;15597;50.914;6.638;2023-05-23T09:30:16;101310.94;;;19.38;55.71
28344;BME280;15597;50.914;6.638;2023-05-23T09:32:57;101315.66;;;19.32;55.63
28344;BME280;15597;50.914;6.638;2023-05-23T09:35:24;101312.00;;;19.34;55.74
28344;BME280;15597;50.914;6.638;2023-05-23T09:37:52;101317.31;;;19.34;55.81
28344;BME280;15597;50.914;6.638;2023-05-23T09:40:20;101315.44;;;19.36;55.88
28344;BME280;15597;50.914;6.638;2023-05-23T09:42:53;101310.84;;;19.40;55.87
28344;BME280;15597;50.914;6.638;2023-05-23T09:45:18;101312.50;;;19.42;55.73
28344;BME280;15597;50.914;6.638;2023-05-23T09:47:53;101318.75;;;19.41;55.70
28344;BME280;15597;50.914;6.638;2023-05-23T09:50:22;101317.53;;;19.49;55.73
28344;BME280;15597;50.914;6.638;2023-05-23T09:52:48;101315.66;;;19.51;55.70
28344;BME280;15597;50.914;6.638;2023-05-23T09:55:15;101318.94;;;19.56;55.54
28344;BME280;15597;50.914;6.638;2023-05-23T09:57:42;101306.47;;;19.58;55.53
28344;BME280;15597;50.914;6.638;2023-05-23T10:00:09;101324.84;;;19.63;55.33
28344;BME280;15597;50.914;6.638;2023-05-23T10:05:49;101318.06;;;19.55;55.54
28344;BME280;15597;50.914;6.638;2023-05-23T10:08:46;101310.19;;;19.54;55.66
28344;BME280;15597;50.914;6.638;2023-05-23T10:13:44;101320.06;;;19.69;54.99
28344;BME280;15597;50.914;6.638;2023-05-23T10:18:48;101322.81;;;19.68;54.38
28344;BME280;15597;50.914;6.638;2023-05-23T10:21:25;101323.13;;;19.62;54.17
28344;BME280;15597;50.914;6.638;2023-05-23T10:23:58;101323.81;;;19.65;54.08
28344;BME280;15597;50.914;6.638;2023-05-23T10:26:25;101331.63;;;19.68;54.08
28344;BME280;15597;50.914;6.638;2023-05-23T10:28:51;101333.16;;;19.74;54.11
28344;BME280;15597;50.914;6.638;2023-05-23T10:31:19;101332.13;;;19.77;53.90
28344;BME280;15597;50.914;6.638;2023-05-23T10:33:51;101338.06;;;19.82;53.88
28344;BME280;15597;50.914;6.638;2023-05-23T10:36:24;101345.72;;;19.88;54.06
28344;BME280;15597;50.914;6.638;2023-05-23T10:39:01;101347.28;;;19.94;53.43
28344;BME280;15597;50.914;6.638;2023-05-23T10:41:37;101346.34;;;19.95;53.16
28344;BME280;15597;50.914;6.638;2023-05-23T10:46:59;101356.97;;;19.95;53.20
28344;BME280;15597;50.914;6.638;2023-05-23T10:49:40;101349.78;;;19.97;53.09
28344;BME280;15597;50.914;6.638;2023-05-23T10:52:07;101348.44;;;20.06;52.46
28344;BME280;15597;50.914;6.638;2023-05-23T10:54:34;101359.72;;;20.11;52.19
28344;BME280;15597;50.914;6.638;2023-05-23T10:57:04;101355.34;;;20.10;52.09
28344;BME280;15597;50.914;6.638;2023-05-23T10:59:30;101361.94;;;20.20;52.27
28344;BME280;15597;50.914;6.638;2023-05-23T11:01:56;101349.13;;;20.28;51.56
28344;BME280;15597;50.914;6.638;2023-05-23T11:04:28;101350.69;;;20.33;51.69
28344;BME280;15597;50.914;6.638;2023-05-23T11:06:54;101351.94;;;20.43;51.20
28344;BME280;15597;50.914;6.638;2023-05-23T11:09:21;101363.97;;;20.50;51.35
28344;BME280;15597;50.914;6.638;2023-05-23T11:14:19;101355.44;;;20.61;50.11
28344;BME280;15597;50.914;6.638;2023-05-23T11:16:45;101358.03;;;20.63;49.79
28344;BME280;15597;50.914;6.638;2023-05-23T11:21:45;101346.75;;;20.75;49.93
28344;BME280;15597;50.914;6.638;2023-05-23T11:24:11;101360.38;;;20.86;49.66
28344;BME280;15597;50.914;6.638;2023-05-23T11:26:37;101350.19;;;20.95;49.09
28344;BME280;15597;50.914;6.638;2023-05-23T11:29:07;101347.19;;;21.01;49.14
28344;BME280;15597;50.914;6.638;2023-05-23T11:31:37;101353.66;;;21.13;48.67
28344;BME280;15597;50.914;6.638;2023-05-23T11:34:02;101355.59;;;21.27;47.80
28344;BME280;15597;50.914;6.638;2023-05-23T11:36:29;101355.84;;;21.38;48.01
28344;BME280;15597;50.914;6.638;2023-05-23T11:38:56;101356.28;;;21.47;47.83
28344;BME280;15597;50.914;6.638;2023-05-23T11:41:26;101343.47;;;21.53;47.24
28344;BME280;15597;50.914;6.638;2023-05-23T11:43:52;101350.44;;;21.56;46.88
28344;BME280;15597;50.914;6.638;2023-05-23T11:46:18;101354.84;;;21.57;46.98
28344;BME280;15597;50.914;6.638;2023-05-23T11:48:47;101346.06;;;21.55;47.09
28344;BME280;15597;50.914;6.638;2023-05-23T11:51:14;101352.94;;;21.59;46.83
28344;BME280;15597;50.914;6.638;2023-05-23T11:53:40;101349.34;;;21.60;46.52
28344;BME280;15597;50.914;6.638;2023-05-23T11:56:06;101348.25;;;21.64;47.03
28344;BME280;15597;50.914;6.638;2023-05-23T11:58:34;101352.63;;;21.65;46.58
28344;BME280;15597;50.914;6.638;2023-05-23T12:01:00;101348.38;;;21.45;47.10
28344;BME280;15597;50.914;6.638;2023-05-23T12:03:27;101351.56;;;21.52;47.01
28344;BME280;15597;50.914;6.638;2023-05-23T12:05:54;101339.09;;;21.52;46.67
28344;BME280;15597;50.914;6.638;2023-05-23T12:08:19;101349.56;;;21.55;46.46
28344;BME280;15597;50.914;6.638;2023-05-23T12:10:50;101352.34;;;21.54;46.80
28344;BME280;15597;50.914;6.638;2023-05-23T12:13:16;101346.69;;;21.60;46.92
28344;BME280;15597;50.914;6.638;2023-05-23T12:15:42;101349.97;;;21.65;46.93
28344;BME280;15597;50.914;6.638;2023-05-23T12:18:07;101350.56;;;21.70;46.79
28344;BME280;15597;50.914;6.638;2023-05-23T12:20:33;101349.53;;;21.73;46.18
28344;BME280;15597;50.914;6.638;2023-05-23T12:23:03;101345.06;;;21.73;45.51
28344;BME280;15597;50.914;6.638;2023-05-23T12:25:38;101351.28;;;21.74;45.85
28344;BME280;15597;50.914;6.638;2023-05-23T12:28:04;101357.25;;;21.78;46.00
28344;BME280;15597;50.914;6.638;2023-05-23T12:30:40;101357.44;;;21.74;45.83
28344;BME280;15597;50.914;6.638;2023-05-23T12:33:09;101360.97;;;21.75;45.67
28344;BME280;15597;50.914;6.638;2023-05-23T12:35:36;101362.59;;;21.78;45.29
28344;BME280;15597;50.914;6.638;2023-05-23T12:38:05;101350.16;;;21.78;45.61
28344;BME280;15597;50.914;6.638;2023-05-23T12:40:31;101347.97;;;21.85;45.73
28344;BME280;15597;50.914;6.638;2023-05-23T12:42:57;101348.50;;;21.92;45.59
28344;BME280;15597;50.914;6.638;2023-05-23T12:47:49;101351.06;;;21.93;45.20
28344;BME280;15597;50.914;6.638;2023-05-23T12:50:15;101345.53;;;21.96;44.74
28344;BME280;15597;50.914;6.638;2023-05-23T12:52:41;101350.09;;;21.94;44.91
28344;BME280;15597;50.914;6.638;2023-05-23T12:55:07;101354.50;;;21.95;44.52
28344;BME280;15597;50.914;6.638;2023-05-23T12:57:34;101366.03;;;21.96;44.79
28344;BME280;15597;50.914;6.638;2023-05-23T13:00:00;101355.09;;;22.00;44.78
28344;BME280;15597;50.914;6.638;2023-05-23T13:02:26;101344.84;;;22.09;45.08
28344;BME280;15597;50.914;6.638;2023-05-23T13:04:52;101347.91;;;22.17;44.27
28344;BME280;15597;50.914;6.638;2023-05-23T13:07:18;101352.69;;;22.26;44.64
28344;BME280;15597;50.914;6.638;2023-05-23T13:09:43;101355.81;;;22.35;44.50
28344;BME280;15597;50.914;6.638;2023-05-23T13:12:09;101353.53;;;22.43;44.39
28344;BME280;15597;50.914;6.638;2023-05-23T13:14:36;101356.63;;;22.51;43.81